createdAt,value
2022-08-25T00:00:43.106Z,22.26
2022-08-25T00:01:43.112Z,22.24
2022-08-25T00:02:55.355Z,22.20
2022-08-25T00:03:44.070Z,22.19
2022-08-25T00:04:43.059Z,22.14
2022-08-25T00:05:43.112Z,22.19
2022-08-25T00:06:44.061Z,22.17
2022-08-25T00:07:43.061Z,22.15
2022-08-25T00:08:43.015Z,22.19
2022-08-25T00:09:43.005Z,22.17
2022-08-25T00:10:42.990Z,22.15
2022-08-25T00:11:43.974Z,22.19
2022-08-25T00:12:45.587Z,22.08
2022-08-25T00:13:42.972Z,22.20
2022-08-25T00:14:42.959Z,22.20
2022-08-25T00:15:43.003Z,22.19
2022-08-25T00:16:42.949Z,22.20
2022-08-25T00:17:42.910Z,22.09
2022-08-25T00:18:42.924Z,22.11
2022-08-25T00:19:42.893Z,22.09
2022-08-25T00:20:43.284Z,22.12
2022-08-25T00:21:43.866Z,22.02
2022-08-25T00:22:42.870Z,21.99
2022-08-25T00:23:42.858Z,22.02
2022-08-25T00:24:42.851Z,21.96
2022-08-25T00:25:42.848Z,21.90
2022-08-25T00:26:42.823Z,21.89
2022-08-25T00:27:45.829Z,21.81
2022-08-25T00:28:42.789Z,21.81
2022-08-25T00:29:42.812Z,21.77
2022-08-25T00:30:42.810Z,21.71
2022-08-25T00:31:42.825Z,21.68
2022-08-25T00:32:42.740Z,21.64
2022-08-25T00:33:43.741Z,21.61
2022-08-25T00:34:42.750Z,21.64
2022-08-25T00:35:42.724Z,21.66
2022-08-25T00:36:42.699Z,21.68
2022-08-25T00:37:42.693Z,21.66
2022-08-25T00:38:42.699Z,21.68
2022-08-25T00:39:42.699Z,21.64
2022-08-25T00:40:42.671Z,21.68
2022-08-25T00:41:42.650Z,21.64
2022-08-25T00:42:42.635Z,21.70
2022-08-25T00:43:42.626Z,21.70
2022-08-25T00:44:42.614Z,21.71
2022-08-25T00:45:42.686Z,21.63
2022-08-25T00:46:43.770Z,21.70
2022-08-25T00:47:42.592Z,21.64
2022-08-25T00:48:43.624Z,21.70
2022-08-25T00:49:42.563Z,21.61
2022-08-25T00:50:42.556Z,21.63
2022-08-25T00:51:42.552Z,21.61
2022-08-25T00:52:42.537Z,21.58
2022-08-25T00:53:42.518Z,21.59
2022-08-25T00:54:43.562Z,21.56
2022-08-25T00:55:43.095Z,21.59
2022-08-25T00:56:42.510Z,21.63
2022-08-25T00:57:42.469Z,21.64
2022-08-25T00:58:42.461Z,21.59
2022-08-25T00:59:43.471Z,21.59
2022-08-25T01:00:42.441Z,21.58
2022-08-25T01:01:42.476Z,21.49
2022-08-25T01:02:42.486Z,21.52
2022-08-25T01:03:42.420Z,21.58
2022-08-25T01:04:47.213Z,21.63
2022-08-25T01:05:43.392Z,21.51
2022-08-25T01:06:42.381Z,21.58
2022-08-25T01:07:42.362Z,21.51
2022-08-25T01:08:42.374Z,21.51
2022-08-25T01:09:42.353Z,21.48
2022-08-25T01:10:42.334Z,21.48
2022-08-25T01:11:42.329Z,21.53
2022-08-25T01:12:42.315Z,21.46
2022-08-25T01:13:42.315Z,21.34
2022-08-25T01:14:42.308Z,21.43
2022-08-25T01:15:42.309Z,21.38
2022-08-25T01:16:42.269Z,21.37
2022-08-25T01:17:42.257Z,21.36
2022-08-25T01:18:42.273Z,21.40
2022-08-25T01:19:42.241Z,21.28
2022-08-25T01:20:42.231Z,21.37
2022-08-25T01:21:42.211Z,21.33
2022-08-25T01:22:42.208Z,21.31
2022-08-25T01:23:42.190Z,21.37
2022-08-25T01:24:43.240Z,21.28
2022-08-25T01:25:42.164Z,21.24
2022-08-25T01:26:43.179Z,21.22
2022-08-25T01:27:43.091Z,21.19
2022-08-25T01:28:42.151Z,21.19
2022-08-25T01:29:42.143Z,21.18
2022-08-25T01:30:42.185Z,21.13
2022-08-25T01:31:42.099Z,21.24
2022-08-25T01:32:42.090Z,21.19
2022-08-25T01:33:42.081Z,21.18
2022-08-25T01:34:42.099Z,21.18
2022-08-25T01:35:42.062Z,21.21
2022-08-25T01:36:42.051Z,21.18
2022-08-25T01:37:42.033Z,21.13
2022-08-25T01:38:42.027Z,21.12
2022-08-25T01:39:42.044Z,21.15
2022-08-25T01:40:42.026Z,21.05
2022-08-25T01:41:41.996Z,21.06
2022-08-25T01:42:41.991Z,21.06
2022-08-25T01:43:41.975Z,21.06
2022-08-25T01:44:41.966Z,21.00
2022-08-25T01:45:41.989Z,20.96
2022-08-25T01:46:41.972Z,21.03
2022-08-25T01:47:41.949Z,20.93
2022-08-25T01:48:41.938Z,20.96
2022-08-25T01:49:41.910Z,20.93
2022-08-25T01:50:41.938Z,20.91
2022-08-25T01:51:41.888Z,20.96
2022-08-25T01:52:44.608Z,20.88
2022-08-25T01:53:41.872Z,20.94
2022-08-25T01:54:41.861Z,20.93
2022-08-25T01:55:41.846Z,20.82
2022-08-25T01:56:41.877Z,20.81
2022-08-25T01:57:41.822Z,20.79
2022-08-25T01:58:41.820Z,20.79
2022-08-25T01:59:41.799Z,20.76
2022-08-25T02:00:41.783Z,20.76
2022-08-25T02:01:42.875Z,20.73
2022-08-25T02:02:42.646Z,20.81
2022-08-25T02:03:42.043Z,20.73
2022-08-25T02:04:44.460Z,20.78
2022-08-25T02:05:41.747Z,20.76
2022-08-25T02:06:41.736Z,20.73
2022-08-25T02:07:41.710Z,20.71
2022-08-25T02:08:41.751Z,20.63
2022-08-25T02:09:41.710Z,20.63
2022-08-25T02:10:41.704Z,20.63
2022-08-25T02:11:41.656Z,20.68
2022-08-25T02:12:41.665Z,20.66
2022-08-25T02:13:42.601Z,20.69
2022-08-25T02:14:41.728Z,20.66
2022-08-25T02:15:41.678Z,20.64
2022-08-25T02:16:41.706Z,20.58
2022-08-25T02:17:41.603Z,20.61
2022-08-25T02:18:41.609Z,20.50
2022-08-25T02:19:41.583Z,20.51
2022-08-25T02:20:41.591Z,20.50
2022-08-25T02:21:41.578Z,20.50
2022-08-25T02:22:41.559Z,20.41
2022-08-25T02:23:42.533Z,20.50
2022-08-25T02:24:41.531Z,20.44
2022-08-25T02:25:41.533Z,20.40
2022-08-25T02:26:41.510Z,20.40
2022-08-25T02:27:41.500Z,20.40
2022-08-25T02:28:41.502Z,20.42
2022-08-25T02:29:41.484Z,20.41
2022-08-25T02:30:41.560Z,20.31
2022-08-25T02:31:41.482Z,20.31
2022-08-25T02:32:41.469Z,20.35
2022-08-25T02:33:41.434Z,20.30
2022-08-25T02:34:42.109Z,20.31
2022-08-25T02:35:44.114Z,20.31
2022-08-25T02:36:41.427Z,20.31
2022-08-25T02:37:41.403Z,20.25
2022-08-25T02:38:41.381Z,20.33
2022-08-25T02:39:41.368Z,20.27
2022-08-25T02:40:41.362Z,20.26
2022-08-25T02:41:41.368Z,20.23
2022-08-25T02:42:42.720Z,20.19
2022-08-25T02:43:41.320Z,20.15
2022-08-25T02:44:42.349Z,20.23
2022-08-25T02:45:41.375Z,20.27
2022-08-25T02:46:42.347Z,20.23
2022-08-25T02:47:41.301Z,20.17
2022-08-25T02:48:44.113Z,20.17
2022-08-25T02:49:41.255Z,20.25
2022-08-25T02:50:41.255Z,20.07
2022-08-25T02:51:41.233Z,20.16
2022-08-25T02:52:41.224Z,20.10
2022-08-25T02:53:41.248Z,20.12
2022-08-25T02:54:41.230Z,20.12
2022-08-25T02:55:41.178Z,20.13
2022-08-25T02:56:41.177Z,20.10
2022-08-25T02:57:44.119Z,20.08
2022-08-25T02:58:41.166Z,20.07
2022-08-25T02:59:41.161Z,20.10
2022-08-25T03:00:44.224Z,20.07
2022-08-25T03:01:41.163Z,20.10
2022-08-25T03:02:41.121Z,20.01
2022-08-25T03:03:47.673Z,20.07
2022-08-25T03:04:41.169Z,20.10
2022-08-25T03:05:41.610Z,20.00
2022-08-25T03:06:41.081Z,20.00
2022-08-25T03:07:41.615Z,20.02
2022-08-25T03:08:41.620Z,19.98
2022-08-25T03:09:41.030Z,19.94
2022-08-25T03:10:41.037Z,19.97
2022-08-25T03:11:41.024Z,19.87
2022-08-25T03:12:41.006Z,19.97
2022-08-25T03:13:43.622Z,19.89
2022-08-25T03:14:41.157Z,20.00
2022-08-25T03:15:40.951Z,19.97
2022-08-25T03:16:41.002Z,19.95
2022-08-25T03:17:40.955Z,20.00
2022-08-25T03:18:40.941Z,19.97
2022-08-25T03:19:40.922Z,19.94
2022-08-25T03:20:40.910Z,19.94
2022-08-25T03:21:40.891Z,19.94
2022-08-25T03:22:43.636Z,19.87
2022-08-25T03:23:40.864Z,19.92
2022-08-25T03:24:40.858Z,19.95
2022-08-25T03:25:40.850Z,19.86
2022-08-25T03:26:40.877Z,19.90
2022-08-25T03:27:40.833Z,19.85
2022-08-25T03:28:40.818Z,19.85
2022-08-25T03:29:47.628Z,19.90
2022-08-25T03:30:40.788Z,19.95
2022-08-25T03:31:40.857Z,19.90
2022-08-25T03:32:40.768Z,19.89
2022-08-25T03:33:40.774Z,19.83
2022-08-25T03:34:40.751Z,19.95
2022-08-25T03:35:40.750Z,19.97
2022-08-25T03:36:40.729Z,19.94
2022-08-25T03:37:40.739Z,19.90
2022-08-25T03:38:40.746Z,19.90
2022-08-25T03:39:40.696Z,20.00
2022-08-25T03:40:40.681Z,19.92
2022-08-25T03:41:41.744Z,19.94
2022-08-25T03:42:44.881Z,19.95
2022-08-25T03:43:40.660Z,19.98
2022-08-25T03:44:40.660Z,19.97
2022-08-25T03:45:40.791Z,20.00
2022-08-25T03:46:40.614Z,19.98
2022-08-25T03:47:40.606Z,19.95
2022-08-25T03:48:40.605Z,19.92
2022-08-25T03:49:40.788Z,19.87
2022-08-25T03:50:40.564Z,19.90
2022-08-25T03:51:40.746Z,19.90
2022-08-25T03:52:42.701Z,19.80
2022-08-25T03:53:40.595Z,19.85
2022-08-25T03:54:40.529Z,19.83
2022-08-25T03:55:40.573Z,19.79
2022-08-25T03:56:40.503Z,19.80
2022-08-25T03:57:40.647Z,19.82
2022-08-25T03:58:40.499Z,19.75
2022-08-25T03:59:40.480Z,19.83
2022-08-25T04:00:40.460Z,19.80
2022-08-25T04:01:40.545Z,19.80
2022-08-25T04:02:40.626Z,19.72
2022-08-25T04:03:41.667Z,19.82
2022-08-25T04:04:40.420Z,19.71
2022-08-25T04:05:40.406Z,19.68
2022-08-25T04:06:40.389Z,19.58
2022-08-25T04:07:40.488Z,19.61
2022-08-25T04:08:40.385Z,19.65
2022-08-25T04:09:40.678Z,19.71
2022-08-25T04:10:40.360Z,19.71
2022-08-25T04:11:40.375Z,19.62
2022-08-25T04:12:40.334Z,19.57
2022-08-25T04:13:40.323Z,19.53
2022-08-25T04:14:40.305Z,19.50
2022-08-25T04:15:40.321Z,19.49
2022-08-25T04:16:41.239Z,19.60
2022-08-25T04:17:40.268Z,19.42
2022-08-25T04:18:41.303Z,19.50
2022-08-25T04:19:40.273Z,19.46
2022-08-25T04:20:43.319Z,19.46
2022-08-25T04:21:41.240Z,19.50
2022-08-25T04:22:40.223Z,19.53
2022-08-25T04:23:40.218Z,19.52
2022-08-25T04:24:40.201Z,19.55
2022-08-25T04:25:40.202Z,19.57
2022-08-25T04:26:40.198Z,19.52
2022-08-25T04:27:40.171Z,19.49
2022-08-25T04:28:40.165Z,19.53
2022-08-25T04:29:40.174Z,19.47
2022-08-25T04:30:40.160Z,19.55
2022-08-25T04:31:40.678Z,19.42
2022-08-25T04:32:40.121Z,19.49
2022-08-25T04:33:40.101Z,19.49
2022-08-25T04:34:40.119Z,19.43
2022-08-25T04:35:40.093Z,19.46
2022-08-25T04:36:40.078Z,19.43
2022-08-25T04:37:40.057Z,19.46
2022-08-25T04:38:40.057Z,19.40
2022-08-25T04:39:40.081Z,19.45
2022-08-25T04:40:40.049Z,19.52
2022-08-25T04:41:40.028Z,19.49
2022-08-25T04:42:40.013Z,19.53
2022-08-25T04:43:39.998Z,19.58
2022-08-25T04:44:40.003Z,19.50
2022-08-25T04:45:40.017Z,19.57
2022-08-25T04:46:39.971Z,19.58
2022-08-25T04:47:39.978Z,19.52
2022-08-25T04:48:39.961Z,19.58
2022-08-25T04:49:39.943Z,19.60
2022-08-25T04:50:40.158Z,19.50
2022-08-25T04:51:39.959Z,19.46
2022-08-25T04:52:42.638Z,19.60
2022-08-25T04:53:39.884Z,19.49
2022-08-25T04:54:40.640Z,19.58
2022-08-25T04:55:39.862Z,19.57
2022-08-25T04:56:40.868Z,19.58
2022-08-25T04:57:39.867Z,19.58
2022-08-25T04:58:39.846Z,19.60
2022-08-25T04:59:39.835Z,19.61
2022-08-25T05:00:39.835Z,19.60
2022-08-25T05:01:39.846Z,19.58
2022-08-25T05:02:39.791Z,19.60
2022-08-25T05:03:39.794Z,19.55
2022-08-25T05:04:39.888Z,19.61
2022-08-25T05:05:39.761Z,19.58
2022-08-25T05:06:42.633Z,19.58
2022-08-25T05:07:40.176Z,19.62
2022-08-25T05:08:39.732Z,19.50
2022-08-25T05:09:39.731Z,19.47
2022-08-25T05:10:39.715Z,19.64
2022-08-25T05:11:39.704Z,19.61
2022-08-25T05:12:40.635Z,19.55
2022-08-25T05:13:39.696Z,19.57
2022-08-25T05:14:39.662Z,19.58
2022-08-25T05:15:40.649Z,19.58
2022-08-25T05:16:39.760Z,19.65
2022-08-25T05:17:39.661Z,19.60
2022-08-25T05:18:39.630Z,19.58
2022-08-25T05:19:39.621Z,19.64
2022-08-25T05:20:39.604Z,19.70
2022-08-25T05:21:41.678Z,19.61
2022-08-25T05:22:39.592Z,19.65
2022-08-25T05:23:39.594Z,19.71
2022-08-25T05:24:39.565Z,19.70
2022-08-25T05:25:39.541Z,19.61
2022-08-25T05:26:41.195Z,19.70
2022-08-25T05:27:39.513Z,19.76
2022-08-25T05:28:39.514Z,19.78
2022-08-25T05:29:39.528Z,19.71
2022-08-25T05:30:42.144Z,19.76
2022-08-25T05:31:43.180Z,19.71
2022-08-25T05:32:39.506Z,19.75
2022-08-25T05:33:39.452Z,19.72
2022-08-25T05:34:39.471Z,19.83
2022-08-25T05:35:39.437Z,19.83
2022-08-25T05:36:39.432Z,19.82
2022-08-25T05:37:39.415Z,19.79
2022-08-25T05:38:39.411Z,19.90
2022-08-25T05:39:39.403Z,19.89
2022-08-25T05:40:40.542Z,19.90
2022-08-25T05:41:40.396Z,19.90
2022-08-25T05:42:39.370Z,19.92
2022-08-25T05:43:39.368Z,19.98
2022-08-25T05:44:40.137Z,19.87
2022-08-25T05:45:39.433Z,19.92
2022-08-25T05:46:40.642Z,19.97
2022-08-25T05:47:42.675Z,20.05
2022-08-25T05:48:39.320Z,20.01
2022-08-25T05:49:40.330Z,20.05
2022-08-25T05:50:42.148Z,19.95
2022-08-25T05:51:46.157Z,20.08
2022-08-25T05:52:40.139Z,20.10
2022-08-25T05:53:40.176Z,20.05
2022-08-25T05:54:46.148Z,20.15
2022-08-25T05:55:39.244Z,20.25
2022-08-25T05:56:39.213Z,20.20
2022-08-25T05:57:39.219Z,20.16
2022-08-25T05:58:39.191Z,20.22
2022-08-25T05:59:39.186Z,20.22
2022-08-25T06:00:39.195Z,20.23
2022-08-25T06:01:39.164Z,20.30
2022-08-25T06:02:39.165Z,20.34
2022-08-25T06:03:39.206Z,20.38
2022-08-25T06:04:45.647Z,20.42
2022-08-25T06:05:39.629Z,20.44
2022-08-25T06:06:39.114Z,20.41
2022-08-25T06:07:45.655Z,20.42
2022-08-25T06:08:39.105Z,20.41
2022-08-25T06:09:39.651Z,20.44
2022-08-25T06:10:45.649Z,20.50
2022-08-25T06:11:39.054Z,20.48
2022-08-25T06:12:39.035Z,20.54
2022-08-25T06:13:41.661Z,20.61
2022-08-25T06:14:39.193Z,20.63
2022-08-25T06:15:41.703Z,20.61
2022-08-25T06:16:39.805Z,20.68
2022-08-25T06:17:39.001Z,20.66
2022-08-25T06:18:39.647Z,20.78
2022-08-25T06:19:39.675Z,20.79
2022-08-25T06:20:38.970Z,20.82
2022-08-25T06:21:38.927Z,20.76
2022-08-25T06:22:38.927Z,20.81
2022-08-25T06:23:41.646Z,20.78
2022-08-25T06:24:38.898Z,20.91
2022-08-25T06:25:38.911Z,20.94
2022-08-25T06:26:39.660Z,20.96
2022-08-25T06:27:41.723Z,20.98
2022-08-25T06:28:39.670Z,20.93
2022-08-25T06:29:39.657Z,21.00
2022-08-25T06:30:38.846Z,21.09
2022-08-25T06:31:38.921Z,21.08
2022-08-25T06:32:38.826Z,21.13
2022-08-25T06:33:38.808Z,21.19
2022-08-25T06:34:39.664Z,21.26
2022-08-25T06:35:39.652Z,21.27
2022-08-25T06:36:38.761Z,21.33
2022-08-25T06:37:39.679Z,21.28
2022-08-25T06:38:39.657Z,21.36
2022-08-25T06:39:38.751Z,21.40
2022-08-25T06:40:39.785Z,21.28
2022-08-25T06:41:38.730Z,21.46
2022-08-25T06:42:38.709Z,21.49
2022-08-25T06:43:38.680Z,21.52
2022-08-25T06:44:38.683Z,21.59
2022-08-25T06:45:38.660Z,21.56
2022-08-25T06:46:38.728Z,21.68
2022-08-25T06:47:38.660Z,21.64
2022-08-25T06:48:38.666Z,21.74
2022-08-25T06:49:38.623Z,21.77
2022-08-25T06:50:38.617Z,21.83
2022-08-25T06:51:38.722Z,21.83
2022-08-25T06:52:38.609Z,21.83
2022-08-25T06:53:38.586Z,21.90
2022-08-25T06:54:38.570Z,21.83
2022-08-25T06:55:38.559Z,21.99
2022-08-25T06:56:38.580Z,22.04
2022-08-25T06:57:38.531Z,21.99
2022-08-25T06:58:38.531Z,22.05
2022-08-25T06:59:38.515Z,22.12
2022-08-25T07:00:38.631Z,22.12
2022-08-25T07:01:39.711Z,22.14
2022-08-25T07:02:38.636Z,22.19
2022-08-25T07:03:38.479Z,22.17
2022-08-25T07:04:38.474Z,22.23
2022-08-25T07:05:43.746Z,22.26
2022-08-25T07:06:39.476Z,22.21
2022-08-25T07:07:45.179Z,22.26
2022-08-25T07:08:38.427Z,22.23
2022-08-25T07:09:39.248Z,22.29
2022-08-25T07:10:38.393Z,22.29
2022-08-25T07:11:39.167Z,22.31
2022-08-25T07:12:39.163Z,22.30
2022-08-25T07:13:38.363Z,22.41
2022-08-25T07:14:38.692Z,22.45
2022-08-25T07:15:39.186Z,22.51
2022-08-25T07:16:39.197Z,22.56
2022-08-25T07:17:41.204Z,22.57
2022-08-25T07:18:39.167Z,22.49
2022-08-25T07:19:38.322Z,22.60
2022-08-25T07:20:38.291Z,22.61
2022-08-25T07:21:41.168Z,22.64
2022-08-25T07:22:39.166Z,22.70
2022-08-25T07:23:38.297Z,22.78
2022-08-25T07:24:38.240Z,22.79
2022-08-25T07:25:40.264Z,22.85
2022-08-25T07:26:41.229Z,22.94
2022-08-25T07:27:38.252Z,22.93
2022-08-25T07:28:39.162Z,22.93
2022-08-25T07:29:42.785Z,23.06
2022-08-25T07:30:39.170Z,23.01
2022-08-25T07:31:39.278Z,23.04
2022-08-25T07:32:42.996Z,23.00
2022-08-25T07:33:38.243Z,23.19
2022-08-25T07:35:39.155Z,23.29
2022-08-25T07:36:38.100Z,23.22
2022-08-25T07:37:49.575Z,23.32
2022-08-25T07:38:39.100Z,23.32
2022-08-25T07:39:38.084Z,23.47
2022-08-25T07:40:42.588Z,23.44
2022-08-25T07:41:39.064Z,23.56
2022-08-25T07:42:38.057Z,23.60
2022-08-25T07:43:38.038Z,23.63
2022-08-25T07:44:38.039Z,23.63
2022-08-25T07:45:38.027Z,23.68
2022-08-25T07:46:39.084Z,23.68
2022-08-25T07:47:40.086Z,23.84
2022-08-25T07:48:37.970Z,23.79
2022-08-25T07:49:40.032Z,23.86
2022-08-25T07:50:38.673Z,23.97
2022-08-25T07:51:37.952Z,24.02
2022-08-25T07:52:38.959Z,23.96
2022-08-25T07:53:37.943Z,24.05
2022-08-25T07:54:38.536Z,24.16
2022-08-25T07:55:38.661Z,24.23
2022-08-25T07:56:44.673Z,24.23
2022-08-25T07:57:44.670Z,24.23
2022-08-25T07:58:37.881Z,24.26
2022-08-25T07:59:40.670Z,24.31
2022-08-25T08:00:38.205Z,24.29
2022-08-25T08:01:40.944Z,24.34
2022-08-25T08:02:37.906Z,24.31
2022-08-25T08:03:50.500Z,24.36
2022-08-25T08:04:38.804Z,24.31
2022-08-25T08:05:37.827Z,24.33
2022-08-25T08:06:37.782Z,24.39
2022-08-25T08:07:43.208Z,24.51
2022-08-25T08:08:38.767Z,24.60
2022-08-25T08:09:37.752Z,24.59
2022-08-25T08:10:53.997Z,24.68
2022-08-25T08:11:41.506Z,24.64
2022-08-25T08:12:38.743Z,24.60
2022-08-25T08:13:41.216Z,24.66
2022-08-25T08:14:39.579Z,24.68
2022-08-25T08:15:38.696Z,24.90
2022-08-25T08:16:37.768Z,24.94
2022-08-25T08:17:42.714Z,24.94
2022-08-25T08:18:37.681Z,24.94
2022-08-25T08:19:39.861Z,24.94
2022-08-25T08:20:44.176Z,24.92
2022-08-25T08:21:37.633Z,24.90
2022-08-25T08:22:38.176Z,24.99
2022-08-25T08:23:37.651Z,24.94
2022-08-25T08:24:44.731Z,24.98
2022-08-25T08:25:38.578Z,25.05
2022-08-25T08:26:57.642Z,25.04
2022-08-25T08:27:38.574Z,24.98
2022-08-25T08:28:37.591Z,24.97
2022-08-25T08:29:40.181Z,25.01
2022-08-25T08:30:37.546Z,25.07
2022-08-25T08:31:37.656Z,25.11
2022-08-25T08:33:08.235Z,25.27
2022-08-25T08:33:40.777Z,25.38
2022-08-25T08:34:38.181Z,25.34
2022-08-25T08:35:42.698Z,25.29
2022-08-25T08:36:40.178Z,25.39
2022-08-25T08:37:38.185Z,25.44
2022-08-25T08:38:44.164Z,25.45
2022-08-25T08:39:37.745Z,25.44
2022-08-25T08:40:38.176Z,25.53
2022-08-25T08:41:54.551Z,25.54
2022-08-25T08:42:38.435Z,25.60
2022-08-25T08:43:37.394Z,25.41
2022-08-25T08:44:38.173Z,25.53
2022-08-25T08:45:40.541Z,25.59
2022-08-25T08:46:38.497Z,25.64
2022-08-25T08:47:38.190Z,25.51
2022-08-25T08:48:37.336Z,25.69
2022-08-25T08:49:37.326Z,25.76
2022-08-25T08:50:37.320Z,25.82
2022-08-25T08:51:37.304Z,25.83
2022-08-25T08:52:37.303Z,25.79
2022-08-25T08:53:37.302Z,25.89
2022-08-25T08:54:37.266Z,25.83
2022-08-25T08:55:37.260Z,25.97
2022-08-25T08:56:45.391Z,26.00
2022-08-25T08:57:39.412Z,26.04
2022-08-25T08:58:37.721Z,26.11
2022-08-25T08:59:37.238Z,26.12
2022-08-25T09:00:37.206Z,26.13
2022-08-25T09:01:37.262Z,26.13
2022-08-25T09:02:39.346Z,26.09
2022-08-25T09:03:44.685Z,26.03
2022-08-25T09:04:37.174Z,26.11
2022-08-25T09:05:41.852Z,26.11
2022-08-25T09:06:38.145Z,26.06
2022-08-25T09:07:37.973Z,26.20
2022-08-25T09:08:37.693Z,26.27
2022-08-25T09:09:38.129Z,26.20
2022-08-25T09:10:37.121Z,26.28
2022-08-25T09:11:37.129Z,26.12
2022-08-25T09:12:37.127Z,26.24
2022-08-25T09:13:37.064Z,26.28
2022-08-25T09:14:37.082Z,26.31
2022-08-25T09:15:40.975Z,26.21
2022-08-25T09:16:37.731Z,26.28
2022-08-25T09:17:37.039Z,26.31
2022-08-25T09:18:41.134Z,26.29
2022-08-25T09:19:41.776Z,26.28
2022-08-25T09:20:37.222Z,26.29
2022-08-25T09:21:37.689Z,26.39
2022-08-25T09:22:39.707Z,26.39
2022-08-25T09:23:36.956Z,26.46
2022-08-25T09:24:36.956Z,26.47
2022-08-25T09:25:53.507Z,26.53
2022-08-25T09:26:38.219Z,26.69
2022-08-25T09:27:36.913Z,26.72
2022-08-25T09:28:38.192Z,26.78
2022-08-25T09:29:37.795Z,26.76
2022-08-25T09:30:37.684Z,26.84
2022-08-25T09:31:36.935Z,27.01
2022-08-25T09:32:40.208Z,27.03
2022-08-25T09:33:36.856Z,27.03
2022-08-25T09:34:36.835Z,27.02
2022-08-25T09:35:36.835Z,27.11
2022-08-25T09:36:38.054Z,27.15
2022-08-25T09:37:36.830Z,27.23
2022-08-25T09:38:37.711Z,27.25
2022-08-25T09:39:36.796Z,27.28
2022-08-25T09:40:36.781Z,27.33
2022-08-25T09:41:37.234Z,27.25
2022-08-25T09:42:51.699Z,27.43
2022-08-25T09:43:37.744Z,27.43
2022-08-25T09:44:43.697Z,27.49
2022-08-25T09:45:36.730Z,27.53
2022-08-25T09:46:36.773Z,27.59
2022-08-25T09:47:36.714Z,27.69
2022-08-25T09:48:39.769Z,27.71
2022-08-25T09:49:36.674Z,27.77
2022-08-25T09:50:37.196Z,27.90
2022-08-25T09:51:42.418Z,27.93
2022-08-25T09:52:37.660Z,27.86
2022-08-25T09:53:36.728Z,27.83
2022-08-25T09:54:44.372Z,27.96
2022-08-25T09:55:38.193Z,27.93
2022-08-25T09:56:36.607Z,27.98
2022-08-25T09:57:36.621Z,27.99
2022-08-25T09:58:36.587Z,27.96
2022-08-25T09:59:36.581Z,27.95
2022-08-25T10:00:36.570Z,28.08
2022-08-25T10:01:36.605Z,28.13
2022-08-25T10:02:37.502Z,28.23
2022-08-25T10:03:36.947Z,28.20
2022-08-25T10:04:36.546Z,28.39
2022-08-25T10:05:37.193Z,28.40
2022-08-25T10:06:36.503Z,28.39
2022-08-25T10:07:36.489Z,28.40
2022-08-25T10:08:37.206Z,28.39
2022-08-25T10:09:36.461Z,28.42
2022-08-25T10:10:36.745Z,28.43
2022-08-25T10:11:38.202Z,28.45
2022-08-25T10:12:36.438Z,28.40
2022-08-25T10:13:37.417Z,28.39
2022-08-25T10:14:36.423Z,28.38
2022-08-25T10:15:36.785Z,28.50
2022-08-25T10:16:37.273Z,28.55
2022-08-25T10:17:36.785Z,28.61
2022-08-25T10:18:37.419Z,28.64
2022-08-25T10:19:36.369Z,28.73
2022-08-25T10:20:36.772Z,28.79
2022-08-25T10:21:37.347Z,29.00
2022-08-25T10:22:36.366Z,28.98
2022-08-25T10:23:37.206Z,29.03
2022-08-25T10:24:37.363Z,29.11
2022-08-25T10:25:37.231Z,29.10
2022-08-25T10:26:36.291Z,29.15
2022-08-25T10:27:36.269Z,29.12
2022-08-25T10:28:36.286Z,29.33
2022-08-25T10:29:36.256Z,29.35
2022-08-25T10:30:37.329Z,29.33
2022-08-25T10:31:36.252Z,29.37
2022-08-25T10:32:37.790Z,29.30
2022-08-25T10:33:36.214Z,29.45
2022-08-25T10:34:36.203Z,29.51
2022-08-25T10:35:42.713Z,29.60
2022-08-25T10:36:38.712Z,29.55
2022-08-25T10:37:36.173Z,29.67
2022-08-25T10:38:36.617Z,29.70
2022-08-25T10:39:36.680Z,29.73
2022-08-25T10:40:36.169Z,29.74
2022-08-25T10:41:36.133Z,29.78
2022-08-25T10:42:36.123Z,29.76
2022-08-25T10:43:36.723Z,29.74
2022-08-25T10:44:36.091Z,29.73
2022-08-25T10:45:38.145Z,29.86
2022-08-25T10:46:36.148Z,29.82
2022-08-25T10:47:38.717Z,29.86
2022-08-25T10:48:36.243Z,29.94
2022-08-25T10:49:36.705Z,29.94
2022-08-25T10:50:36.070Z,30.03
2022-08-25T10:51:36.013Z,30.06
2022-08-25T10:52:36.033Z,30.15
2022-08-25T10:53:38.707Z,30.23
2022-08-25T10:54:36.714Z,30.25
2022-08-25T10:55:37.143Z,30.16
2022-08-25T10:56:36.934Z,30.19
2022-08-25T10:57:35.953Z,30.15
2022-08-25T10:58:35.974Z,30.10
2022-08-25T10:59:35.935Z,30.01
2022-08-25T11:00:35.934Z,30.06
2022-08-25T11:01:43.475Z,29.99
2022-08-25T11:02:37.936Z,30.08
2022-08-25T11:03:35.888Z,30.16
2022-08-25T11:04:36.375Z,30.10
2022-08-25T11:05:36.852Z,30.21
2022-08-25T11:06:36.723Z,30.15
2022-08-25T11:07:36.240Z,30.22
2022-08-25T11:08:35.851Z,30.23
2022-08-25T11:09:50.714Z,30.15
2022-08-25T11:10:35.817Z,30.19
2022-08-25T11:11:36.081Z,30.29
2022-08-25T11:12:35.855Z,30.36
2022-08-25T11:13:35.789Z,30.44
2022-08-25T11:14:35.775Z,30.38
2022-08-25T11:15:35.786Z,30.51
2022-08-25T11:16:42.768Z,30.60
2022-08-25T11:17:42.727Z,30.60
2022-08-25T11:18:42.719Z,30.73
2022-08-25T11:19:35.722Z,30.60
2022-08-25T11:20:38.233Z,30.54
2022-08-25T11:21:35.968Z,30.63
2022-08-25T11:22:35.690Z,30.73
2022-08-25T11:23:35.689Z,30.70
2022-08-25T11:24:36.104Z,30.90
2022-08-25T11:25:42.229Z,30.88
2022-08-25T11:26:37.217Z,30.85
2022-08-25T11:27:35.664Z,30.93
2022-08-25T11:28:35.761Z,30.97
2022-08-25T11:29:36.227Z,31.00
2022-08-25T11:30:35.654Z,31.01
2022-08-25T11:31:36.228Z,31.20
2022-08-25T11:32:35.637Z,31.23
2022-08-25T11:33:35.591Z,31.31
2022-08-25T11:34:36.220Z,31.23
2022-08-25T11:35:37.580Z,31.28
2022-08-25T11:36:35.619Z,31.23
2022-08-25T11:37:35.526Z,31.12
2022-08-25T11:38:35.548Z,30.98
2022-08-25T11:39:35.516Z,31.15
2022-08-25T11:40:36.227Z,31.19
2022-08-25T11:41:35.495Z,31.19
2022-08-25T11:42:35.754Z,31.25
2022-08-25T11:43:35.753Z,31.30
2022-08-25T11:44:36.217Z,31.40
2022-08-25T11:45:35.441Z,31.49
2022-08-25T11:46:35.452Z,31.46
2022-08-25T11:47:35.454Z,31.47
2022-08-25T11:48:35.432Z,31.50
2022-08-25T11:49:35.727Z,31.53
2022-08-25T11:50:35.394Z,31.50
2022-08-25T11:51:36.713Z,31.57
2022-08-25T11:52:36.224Z,31.60
2022-08-25T11:53:35.367Z,31.49
2022-08-25T11:54:35.355Z,31.40
2022-08-25T11:55:35.367Z,31.47
2022-08-25T11:56:35.343Z,31.60
2022-08-25T11:57:35.316Z,31.56
2022-08-25T11:58:56.329Z,31.56
2022-08-25T11:59:42.230Z,31.64
2022-08-25T12:00:36.335Z,31.74
2022-08-25T12:01:35.292Z,31.53
2022-08-25T12:02:35.265Z,31.64
2022-08-25T12:03:35.251Z,31.65
2022-08-25T12:04:44.013Z,31.54
2022-08-25T12:05:36.293Z,31.64
2022-08-25T12:06:35.231Z,31.60
2022-08-25T12:07:35.214Z,31.59
2022-08-25T12:08:35.198Z,31.75
2022-08-25T12:09:35.733Z,31.97
2022-08-25T12:10:37.350Z,32.03
2022-08-25T12:11:35.781Z,32.09
2022-08-25T12:12:37.292Z,32.09
2022-08-25T12:13:35.734Z,32.24
2022-08-25T12:14:35.735Z,32.36
2022-08-25T12:15:35.168Z,32.35
2022-08-25T12:16:37.766Z,32.43
2022-08-25T12:17:35.122Z,32.44
2022-08-25T12:18:35.115Z,32.54
2022-08-25T12:19:35.085Z,32.46
2022-08-25T12:20:35.111Z,32.58
2022-08-25T12:21:35.072Z,32.35
2022-08-25T12:22:35.818Z,32.06
2022-08-25T12:23:35.273Z,32.05
2022-08-25T12:24:35.046Z,32.07
2022-08-25T12:25:35.027Z,32.13
2022-08-25T12:26:36.078Z,32.19
2022-08-25T12:27:41.751Z,32.39
2022-08-25T12:28:35.374Z,32.47
2022-08-25T12:29:35.041Z,32.62
2022-08-25T12:30:36.923Z,32.72
2022-08-25T12:31:34.980Z,32.61
2022-08-25T12:32:41.743Z,32.62
2022-08-25T12:33:37.751Z,32.51
2022-08-25T12:34:36.253Z,31.99
2022-08-25T12:35:37.750Z,31.56
2022-08-25T12:36:37.742Z,31.62
2022-08-25T12:37:42.760Z,31.71
2022-08-25T12:38:37.809Z,31.94
2022-08-25T12:39:35.929Z,32.06
2022-08-25T12:40:35.002Z,32.43
2022-08-25T12:41:36.796Z,32.59
2022-08-25T12:42:34.863Z,32.91
2022-08-25T12:43:37.597Z,33.05
2022-08-25T12:44:42.286Z,33.02
2022-08-25T12:45:41.821Z,33.09
2022-08-25T12:46:35.270Z,33.12
2022-08-25T12:47:38.434Z,33.06
2022-08-25T12:48:35.267Z,33.05
2022-08-25T12:49:35.749Z,32.99
2022-08-25T12:50:35.756Z,32.85
2022-08-25T12:51:34.838Z,32.77
2022-08-25T12:52:37.793Z,32.71
2022-08-25T12:53:37.237Z,32.76